Pomeroy, Iowa
Current Conditions -  °F | °C
As of 12:15 PM on Sunday 25 Jan 2015 (Local Time) from KFOD Reporting Station
Overcast Overcast  
Wind Chill: 23°   Ceiling: 1000
Heat Index: 32°   Visibility: 10mi
Dew Point: 27°   Wind: 13mph
Humidity: 80%   Direction: 10°N
Pressure: 29.97"   Gusts: 16mph
Location:  42.55°N, 94.68°W
Report Text: KFOD 251815Z AUTO 01011G14KT 10SM OVC010 00/M03 A2997 RMK AO1
Loading
Personal Weather Stations






























Interactive Weather Map New forecast layout! Learn more

10-Day Weather Forecast

Advertisements
Track Severe Weather on mobile